sensor_id;sensor_type;location;lat;lon;timestamp;temperature;humidity
13245;DHT22;6689;53.400;12.486;2022-12-05T00:02:22;2.80;1.00
13245;DHT22;6689;53.400;12.486;2022-12-05T00:04:49;2.80;99.90
13245;DHT22;6689;53.400;12.486;2022-12-05T00:07:17;2.70;1.00
13245;DHT22;6689;53.400;12.486;2022-12-05T00:09:44;2.70;1.00
13245;DHT22;6689;53.400;12.486;2022-12-05T00:12:11;2.80;99.90
13245;DHT22;6689;53.400;12.486;2022-12-05T00:14:39;2.70;99.90
13245;DHT22;6689;53.400;12.486;2022-12-05T00:17:06;2.70;99.90
13245;DHT22;6689;53.400;12.486;2022-12-05T00:19:33;2.70;99.90
13245;DHT22;6689;53.400;12.486;2022-12-05T00:22:00;2.70;99.90
13245;DHT22;6689;53.400;12.486;2022-12-05T00:24:27;2.80;99.90
13245;DHT22;6689;53.400;12.486;2022-12-05T00:26:54;2.70;99.90
13245;DHT22;6689;53.400;12.486;2022-12-05T00:29:22;2.80;99.90
13245;DHT22;6689;53.400;12.486;2022-12-05T00:31:50;2.80;99.90
13245;DHT22;6689;53.400;12.486;2022-12-05T00:34:17;2.70;99.90
13245;DHT22;6689;53.400;12.486;2022-12-05T00:36:44;2.60;1.00
13245;DHT22;6689;53.400;12.486;2022-12-05T00:39:11;2.70;99.90
13245;DHT22;6689;53.400;12.486;2022-12-05T00:41:40;2.80;99.90
13245;DHT22;6689;53.400;12.486;2022-12-05T00:44:07;2.80;99.90
13245;DHT22;6689;53.400;12.486;2022-12-05T00:46:35;2.80;99.90
13245;DHT22;6689;53.400;12.486;2022-12-05T00:49:03;2.80;99.90
13245;DHT22;6689;53.400;12.486;2022-12-05T00:51:31;2.80;99.90
13245;DHT22;6689;53.400;12.486;2022-12-05T00:53:59;3.00;99.90
13245;DHT22;6689;53.400;12.486;2022-12-05T00:56:27;2.70;99.90
13245;DHT22;6689;53.400;12.486;2022-12-05T00:58:55;2.70;99.90
13245;DHT22;6689;53.400;12.486;2022-12-05T01:01:23;2.60;99.90
13245;DHT22;6689;53.400;12.486;2022-12-05T01:03:50;2.70;99.90
13245;DHT22;6689;53.400;12.486;2022-12-05T01:06:20;2.60;1.00
13245;DHT22;6689;53.400;12.486;2022-12-05T01:08:47;2.50;1.00
13245;DHT22;6689;53.400;12.486;2022-12-05T01:11:17;2.50;1.00
13245;DHT22;6689;53.400;12.486;2022-12-05T01:13:44;2.50;1.00
13245;DHT22;6689;53.400;12.486;2022-12-05T01:16:14;2.50;1.00
13245;DHT22;6689;53.400;12.486;2022-12-05T01:18:41;2.60;1.00
13245;DHT22;6689;53.400;12.486;2022-12-05T01:21:08;2.50;1.00
13245;DHT22;6689;53.400;12.486;2022-12-05T01:23:37;2.60;1.00
13245;DHT22;6689;53.400;12.486;2022-12-05T01:26:05;2.70;1.00
13245;DHT22;6689;53.400;12.486;2022-12-05T01:28:32;2.70;1.00
13245;DHT22;6689;53.400;12.486;2022-12-05T01:31:02;2.70;1.00
13245;DHT22;6689;53.400;12.486;2022-12-05T01:33:29;2.70;1.00
13245;DHT22;6689;53.400;12.486;2022-12-05T01:35:56;2.80;1.00
13245;DHT22;6689;53.400;12.486;2022-12-05T01:38:26;2.50;1.00
13245;DHT22;6689;53.400;12.486;2022-12-05T01:41:00;2.50;1.00
13245;DHT22;6689;53.400;12.486;2022-12-05T01:43:29;2.80;1.00
13245;DHT22;6689;53.400;12.486;2022-12-05T01:45:56;2.80;1.00
13245;DHT22;6689;53.400;12.486;2022-12-05T01:48:24;2.90;1.00
13245;DHT22;6689;53.400;12.486;2022-12-05T01:50:52;2.90;99.90
13245;DHT22;6689;53.400;12.486;2022-12-05T01:53:19;2.50;99.90
13245;DHT22;6689;53.400;12.486;2022-12-05T01:55:47;2.80;1.00
13245;DHT22;6689;53.400;12.486;2022-12-05T01:58:15;2.80;1.00
13245;DHT22;6689;53.400;12.486;2022-12-05T02:00:43;2.80;1.00
13245;DHT22;6689;53.400;12.486;2022-12-05T02:03:12;2.90;1.00
13245;DHT22;6689;53.400;12.486;2022-12-05T02:05:40;2.80;99.90
13245;DHT22;6689;53.400;12.486;2022-12-05T02:08:08;3.00;99.90
13245;DHT22;6689;53.400;12.486;2022-12-05T02:10:36;2.80;99.90
13245;DHT22;6689;53.400;12.486;2022-12-05T02:13:06;2.80;1.00
13245;DHT22;6689;53.400;12.486;2022-12-05T02:15:39;2.90;1.00
13245;DHT22;6689;53.400;12.486;2022-12-05T02:18:12;2.90;1.00
13245;DHT22;6689;53.400;12.486;2022-12-05T02:20:45;2.90;99.90
13245;DHT22;6689;53.400;12.486;2022-12-05T02:29:18;2.90;99.90
13245;DHT22;6689;53.400;12.486;2022-12-05T02:31:51;2.90;99.90
13245;DHT22;6689;53.400;12.486;2022-12-05T02:34:23;3.00;99.90
13245;DHT22;6689;53.400;12.486;2022-12-05T02:36:53;3.00;99.90
13245;DHT22;6689;53.400;12.486;2022-12-05T02:39:23;3.00;99.90
13245;DHT22;6689;53.400;12.486;2022-12-05T02:41:53;3.00;99.90
13245;DHT22;6689;53.400;12.486;2022-12-05T02:44:22;2.90;99.90
13245;DHT22;6689;53.400;12.486;2022-12-05T02:46:51;3.00;99.90
13245;DHT22;6689;53.400;12.486;2022-12-05T02:49:20;3.00;99.90
13245;DHT22;6689;53.400;12.486;2022-12-05T02:51:49;3.00;99.90
13245;DHT22;6689;53.400;12.486;2022-12-05T02:54:18;2.90;99.90
13245;DHT22;6689;53.400;12.486;2022-12-05T02:56:46;2.90;99.90
13245;DHT22;6689;53.400;12.486;2022-12-05T02:59:15;3.00;99.90
13245;DHT22;6689;53.400;12.486;2022-12-05T03:01:42;3.00;99.90
13245;DHT22;6689;53.400;12.486;2022-12-05T03:04:12;3.00;99.90
13245;DHT22;6689;53.400;12.486;2022-12-05T03:06:40;2.80;99.90
13245;DHT22;6689;53.400;12.486;2022-12-05T03:09:08;2.90;1.00
13245;DHT22;6689;53.400;12.486;2022-12-05T03:11:37;2.90;99.90
13245;DHT22;6689;53.400;12.486;2022-12-05T03:14:05;3.00;99.90
13245;DHT22;6689;53.400;12.486;2022-12-05T03:16:35;3.00;99.90
13245;DHT22;6689;53.400;12.486;2022-12-05T03:19:04;2.90;99.90
13245;DHT22;6689;53.400;12.486;2022-12-05T03:21:34;3.00;99.90
13245;DHT22;6689;53.400;12.486;2022-12-05T03:24:03;3.00;99.90
13245;DHT22;6689;53.400;12.486;2022-12-05T03:26:42;2.90;99.90
13245;DHT22;6689;53.400;12.486;2022-12-05T03:29:16;2.90;99.90
13245;DHT22;6689;53.400;12.486;2022-12-05T03:31:48;2.90;1.00
13245;DHT22;6689;53.400;12.486;2022-12-05T03:34:19;3.00;99.90
13245;DHT22;6689;53.400;12.486;2022-12-05T03:36:48;2.90;99.90
13245;DHT22;6689;53.400;12.486;2022-12-05T03:39:17;3.00;99.90
13245;DHT22;6689;53.400;12.486;2022-12-05T03:41:49;3.10;99.90
13245;DHT22;6689;53.400;12.486;2022-12-05T03:44:19;3.00;99.90
13245;DHT22;6689;53.400;12.486;2022-12-05T03:46:50;2.90;99.90
13245;DHT22;6689;53.400;12.486;2022-12-05T03:49:19;3.00;99.90
13245;DHT22;6689;53.400;12.486;2022-12-05T03:51:55;3.00;99.90
13245;DHT22;6689;53.400;12.486;2022-12-05T03:54:24;2.80;99.90
13245;DHT22;6689;53.400;12.486;2022-12-05T03:56:53;3.00;1.40
13245;DHT22;6689;53.400;12.486;2022-12-05T03:59:24;3.00;99.90
13245;DHT22;6689;53.400;12.486;2022-12-05T04:01:52;3.10;99.90
13245;DHT22;6689;53.400;12.486;2022-12-05T04:04:22;3.00;99.90
13245;DHT22;6689;53.400;12.486;2022-12-05T04:06:54;3.00;99.90
13245;DHT22;6689;53.400;12.486;2022-12-05T04:09:22;3.00;99.90
13245;DHT22;6689;53.400;12.486;2022-12-05T04:11:52;3.00;99.90
13245;DHT22;6689;53.400;12.486;2022-12-05T04:14:21;3.00;99.90
13245;DHT22;6689;53.400;12.486;2022-12-05T04:16:52;2.90;99.90
13245;DHT22;6689;53.400;12.486;2022-12-05T04:19:28;3.00;99.90
13245;DHT22;6689;53.400;12.486;2022-12-05T04:22:19;3.00;99.90
13245;DHT22;6689;53.400;12.486;2022-12-05T04:24:46;3.10;99.90
13245;DHT22;6689;53.400;12.486;2022-12-05T04:27:33;3.10;99.90
13245;DHT22;6689;53.400;12.486;2022-12-05T04:30:03;3.10;99.90
13245;DHT22;6689;53.400;12.486;2022-12-05T04:32:33;3.10;99.90
13245;DHT22;6689;53.400;12.486;2022-12-05T04:35:05;3.10;99.90
13245;DHT22;6689;53.400;12.486;2022-12-05T04:37:36;3.20;99.90
13245;DHT22;6689;53.400;12.486;2022-12-05T04:40:06;3.20;99.90
13245;DHT22;6689;53.400;12.486;2022-12-05T04:42:35;3.20;99.90
13245;DHT22;6689;53.400;12.486;2022-12-05T04:45:04;3.20;99.90
13245;DHT22;6689;53.400;12.486;2022-12-05T04:47:36;3.10;99.90
13245;DHT22;6689;53.400;12.486;2022-12-05T04:50:05;3.10;99.90
13245;DHT22;6689;53.400;12.486;2022-12-05T04:52:33;3.10;99.90
13245;DHT22;6689;53.400;12.486;2022-12-05T04:55:04;3.10;99.90
13245;DHT22;6689;53.400;12.486;2022-12-05T04:57:34;2.90;99.90
13245;DHT22;6689;53.400;12.486;2022-12-05T05:00:03;3.10;99.90
13245;DHT22;6689;53.400;12.486;2022-12-05T05:02:31;3.10;99.90
13245;DHT22;6689;53.400;12.486;2022-12-05T05:04:58;2.90;99.90
13245;DHT22;6689;53.400;12.486;2022-12-05T05:07:27;3.00;99.90
13245;DHT22;6689;53.400;12.486;2022-12-05T05:09:54;3.00;99.90
13245;DHT22;6689;53.400;12.486;2022-12-05T05:12:22;3.10;99.90
13245;DHT22;6689;53.400;12.486;2022-12-05T05:14:49;3.10;99.90
13245;DHT22;6689;53.400;12.486;2022-12-05T05:17:16;3.10;99.90
13245;DHT22;6689;53.400;12.486;2022-12-05T05:19:43;3.10;99.90
13245;DHT22;6689;53.400;12.486;2022-12-05T05:22:10;3.20;99.90
13245;DHT22;6689;53.400;12.486;2022-12-05T05:24:37;3.10;99.90
13245;DHT22;6689;53.400;12.486;2022-12-05T05:27:03;3.00;99.90
13245;DHT22;6689;53.400;12.486;2022-12-05T05:29:32;2.90;1.00
13245;DHT22;6689;53.400;12.486;2022-12-05T05:31:59;3.00;1.00
13245;DHT22;6689;53.400;12.486;2022-12-05T05:34:25;3.00;99.90
13245;DHT22;6689;53.400;12.486;2022-12-05T05:36:53;3.00;99.90
13245;DHT22;6689;53.400;12.486;2022-12-05T05:39:19;3.00;99.90
13245;DHT22;6689;53.400;12.486;2022-12-05T05:41:47;3.00;99.90
13245;DHT22;6689;53.400;12.486;2022-12-05T05:44:14;2.90;99.90
13245;DHT22;6689;53.400;12.486;2022-12-05T05:46:42;3.00;99.90
13245;DHT22;6689;53.400;12.486;2022-12-05T05:49:09;2.90;99.90
13245;DHT22;6689;53.400;12.486;2022-12-05T05:51:36;2.80;1.40
13245;DHT22;6689;53.400;12.486;2022-12-05T05:54:03;2.80;1.00
13245;DHT22;6689;53.400;12.486;2022-12-05T05:56:30;2.90;99.90
13245;DHT22;6689;53.400;12.486;2022-12-05T05:58:58;3.00;1.00
13245;DHT22;6689;53.400;12.486;2022-12-05T06:01:26;2.90;99.90
13245;DHT22;6689;53.400;12.486;2022-12-05T06:03:55;3.00;99.90
13245;DHT22;6689;53.400;12.486;2022-12-05T06:06:22;3.00;99.90
13245;DHT22;6689;53.400;12.486;2022-12-05T06:08:49;3.10;99.90
13245;DHT22;6689;53.400;12.486;2022-12-05T06:11:17;3.00;99.90
13245;DHT22;6689;53.400;12.486;2022-12-05T06:13:44;3.00;99.90
13245;DHT22;6689;53.400;12.486;2022-12-05T06:16:12;3.10;99.90
13245;DHT22;6689;53.400;12.486;2022-12-05T06:18:39;3.00;99.90
13245;DHT22;6689;53.400;12.486;2022-12-05T06:21:08;2.90;99.90
13245;DHT22;6689;53.400;12.486;2022-12-05T06:23:36;2.90;99.90
13245;DHT22;6689;53.400;12.486;2022-12-05T06:26:05;3.00;99.90
13245;DHT22;6689;53.400;12.486;2022-12-05T06:28:32;2.90;99.90
13245;DHT22;6689;53.400;12.486;2022-12-05T06:30:59;2.90;99.90
13245;DHT22;6689;53.400;12.486;2022-12-05T06:33:27;3.00;99.90
13245;DHT22;6689;53.400;12.486;2022-12-05T06:36:00;3.00;99.90
13245;DHT22;6689;53.400;12.486;2022-12-05T06:38:28;3.00;99.90
13245;DHT22;6689;53.400;12.486;2022-12-05T06:40:56;2.70;99.90
13245;DHT22;6689;53.400;12.486;2022-12-05T06:43:23;3.00;99.90
13245;DHT22;6689;53.400;12.486;2022-12-05T06:45:50;3.00;99.90
13245;DHT22;6689;53.400;12.486;2022-12-05T06:48:17;3.00;99.90
13245;DHT22;6689;53.400;12.486;2022-12-05T06:50:47;3.00;99.90
13245;DHT22;6689;53.400;12.486;2022-12-05T06:53:14;3.10;99.90
13245;DHT22;6689;53.400;12.486;2022-12-05T06:55:43;3.00;99.90
13245;DHT22;6689;53.400;12.486;2022-12-05T06:58:09;3.00;99.90
13245;DHT22;6689;53.400;12.486;2022-12-05T07:00:36;2.90;99.90
13245;DHT22;6689;53.400;12.486;2022-12-05T07:03:20;3.00;99.90
13245;DHT22;6689;53.400;12.486;2022-12-05T07:05:47;3.00;99.90
13245;DHT22;6689;53.400;12.486;2022-12-05T07:08:14;3.00;99.90
13245;DHT22;6689;53.400;12.486;2022-12-05T07:10:48;3.10;99.90
13245;DHT22;6689;53.400;12.486;2022-12-05T07:13:15;3.00;99.90
13245;DHT22;6689;53.400;12.486;2022-12-05T07:15:44;3.10;99.90
13245;DHT22;6689;53.400;12.486;2022-12-05T07:18:11;3.10;99.90
13245;DHT22;6689;53.400;12.486;2022-12-05T07:20:38;3.10;99.90
13245;DHT22;6689;53.400;12.486;2022-12-05T07:23:05;3.10;99.90
13245;DHT22;6689;53.400;12.486;2022-12-05T07:25:32;3.10;99.90
13245;DHT22;6689;53.400;12.486;2022-12-05T07:28:00;3.10;99.90
13245;DHT22;6689;53.400;12.486;2022-12-05T07:30:27;3.10;99.90
13245;DHT22;6689;53.400;12.486;2022-12-05T07:32:54;3.10;99.90
13245;DHT22;6689;53.400;12.486;2022-12-05T07:35:21;3.20;99.90
13245;DHT22;6689;53.400;12.486;2022-12-05T07:37:48;3.10;99.90
13245;DHT22;6689;53.400;12.486;2022-12-05T07:40:15;3.10;99.90
13245;DHT22;6689;53.400;12.486;2022-12-05T07:42:42;3.20;99.90
13245;DHT22;6689;53.400;12.486;2022-12-05T07:45:12;3.20;99.90
13245;DHT22;6689;53.400;12.486;2022-12-05T07:47:42;3.20;99.90
13245;DHT22;6689;53.400;12.486;2022-12-05T07:50:10;3.20;99.90
13245;DHT22;6689;53.400;12.486;2022-12-05T07:52:38;3.20;99.90
13245;DHT22;6689;53.400;12.486;2022-12-05T07:55:06;3.20;99.90
13245;DHT22;6689;53.400;12.486;2022-12-05T07:57:33;3.20;99.90
13245;DHT22;6689;53.400;12.486;2022-12-05T08:00:00;3.30;99.90
13245;DHT22;6689;53.400;12.486;2022-12-05T08:02:28;3.40;99.90
13245;DHT22;6689;53.400;12.486;2022-12-05T08:04:55;3.50;99.90
13245;DHT22;6689;53.400;12.486;2022-12-05T08:07:22;3.30;99.90
13245;DHT22;6689;53.400;12.486;2022-12-05T08:09:49;3.30;99.90
13245;DHT22;6689;53.400;12.486;2022-12-05T08:12:16;3.30;99.90
13245;DHT22;6689;53.400;12.486;2022-12-05T08:14:43;3.30;99.90
13245;DHT22;6689;53.400;12.486;2022-12-05T08:17:10;3.30;99.90
13245;DHT22;6689;53.400;12.486;2022-12-05T08:19:39;3.30;99.90
13245;DHT22;6689;53.400;12.486;2022-12-05T08:22:06;3.20;99.90
13245;DHT22;6689;53.400;12.486;2022-12-05T08:24:32;3.30;99.90
13245;DHT22;6689;53.400;12.486;2022-12-05T08:26:59;3.30;99.90
13245;DHT22;6689;53.400;12.486;2022-12-05T08:29:28;3.30;99.90
13245;DHT22;6689;53.400;12.486;2022-12-05T08:31:55;3.40;99.90
13245;DHT22;6689;53.400;12.486;2022-12-05T08:34:26;3.40;99.90
13245;DHT22;6689;53.400;12.486;2022-12-05T08:36:54;3.40;99.90
13245;DHT22;6689;53.400;12.486;2022-12-05T08:39:21;3.20;99.90
13245;DHT22;6689;53.400;12.486;2022-12-05T08:41:48;3.40;99.90
13245;DHT22;6689;53.400;12.486;2022-12-05T08:44:15;3.30;99.90
13245;DHT22;6689;53.400;12.486;2022-12-05T08:46:43;3.40;99.90
13245;DHT22;6689;53.400;12.486;2022-12-05T08:49:11;3.40;99.90
13245;DHT22;6689;53.400;12.486;2022-12-05T08:51:38;3.50;99.90
13245;DHT22;6689;53.400;12.486;2022-12-05T08:54:08;3.40;99.90
13245;DHT22;6689;53.400;12.486;2022-12-05T08:56:35;3.40;99.90
13245;DHT22;6689;53.400;12.486;2022-12-05T08:59:03;3.40;99.90
13245;DHT22;6689;53.400;12.486;2022-12-05T09:01:30;3.50;99.90
13245;DHT22;6689;53.400;12.486;2022-12-05T09:03:57;3.50;99.90
13245;DHT22;6689;53.400;12.486;2022-12-05T09:06:26;3.50;99.90
13245;DHT22;6689;53.400;12.486;2022-12-05T09:08:54;3.60;99.90
13245;DHT22;6689;53.400;12.486;2022-12-05T09:11:24;3.60;99.90
13245;DHT22;6689;53.400;12.486;2022-12-05T09:13:52;3.40;99.90
13245;DHT22;6689;53.400;12.486;2022-12-05T09:16:20;3.50;99.90
13245;DHT22;6689;53.400;12.486;2022-12-05T09:18:47;3.50;99.90
13245;DHT22;6689;53.400;12.486;2022-12-05T09:21:15;3.60;99.90
13245;DHT22;6689;53.400;12.486;2022-12-05T09:23:42;3.60;99.90
13245;DHT22;6689;53.400;12.486;2022-12-05T09:26:10;3.60;99.90
13245;DHT22;6689;53.400;12.486;2022-12-05T09:28:39;3.60;99.90
13245;DHT22;6689;53.400;12.486;2022-12-05T09:31:07;3.60;99.90
13245;DHT22;6689;53.400;12.486;2022-12-05T09:33:34;3.60;99.90
13245;DHT22;6689;53.400;12.486;2022-12-05T09:36:02;3.60;99.90
13245;DHT22;6689;53.400;12.486;2022-12-05T09:38:29;3.60;99.90
13245;DHT22;6689;53.400;12.486;2022-12-05T09:40:59;3.40;99.90
13245;DHT22;6689;53.400;12.486;2022-12-05T09:43:30;3.40;99.90
13245;DHT22;6689;53.400;12.486;2022-12-05T09:46:02;3.50;99.90
13245;DHT22;6689;53.400;12.486;2022-12-05T09:48:30;3.50;99.90
13245;DHT22;6689;53.400;12.486;2022-12-05T09:50:58;3.50;99.90
13245;DHT22;6689;53.400;12.486;2022-12-05T09:53:27;3.50;99.90
13245;DHT22;6689;53.400;12.486;2022-12-05T09:55:56;3.50;99.90
13245;DHT22;6689;53.400;12.486;2022-12-05T09:58:36;3.50;99.90
13245;DHT22;6689;53.400;12.486;2022-12-05T10:01:09;3.40;99.90
13245;DHT22;6689;53.400;12.486;2022-12-05T10:03:40;3.40;99.90
13245;DHT22;6689;53.400;12.486;2022-12-05T10:06:15;3.50;99.90
13245;DHT22;6689;53.400;12.486;2022-12-05T10:08:59;3.50;99.90
13245;DHT22;6689;53.400;12.486;2022-12-05T10:11:33;3.40;99.90
13245;DHT22;6689;53.400;12.486;2022-12-05T10:14:03;3.50;99.90
13245;DHT22;6689;53.400;12.486;2022-12-05T10:16:36;3.50;99.90
13245;DHT22;6689;53.400;12.486;2022-12-05T10:19:08;3.60;99.90
13245;DHT22;6689;53.400;12.486;2022-12-05T10:21:38;3.60;99.90
13245;DHT22;6689;53.400;12.486;2022-12-05T10:24:10;3.70;99.90
13245;DHT22;6689;53.400;12.486;2022-12-05T10:26:39;3.50;99.90
13245;DHT22;6689;53.400;12.486;2022-12-05T10:29:11;3.60;99.90
13245;DHT22;6689;53.400;12.486;2022-12-05T10:31:42;3.60;99.90
13245;DHT22;6689;53.400;12.486;2022-12-05T10:34:11;3.70;99.90
13245;DHT22;6689;53.400;12.486;2022-12-05T10:36:42;3.50;99.90
13245;DHT22;6689;53.400;12.486;2022-12-05T10:39:11;3.70;99.90
13245;DHT22;6689;53.400;12.486;2022-12-05T10:41:38;3.70;99.90
13245;DHT22;6689;53.400;12.486;2022-12-05T10:44:08;3.60;99.90
13245;DHT22;6689;53.400;12.486;2022-12-05T10:46:36;3.70;99.90
13245;DHT22;6689;53.400;12.486;2022-12-05T10:49:08;3.70;99.90
13245;DHT22;6689;53.400;12.486;2022-12-05T10:51:35;3.70;99.90
13245;DHT22;6689;53.400;12.486;2022-12-05T10:54:11;3.70;99.90
13245;DHT22;6689;53.400;12.486;2022-12-05T10:56:40;3.60;99.90
13245;DHT22;6689;53.400;12.486;2022-12-05T10:59:09;3.70;99.90
13245;DHT22;6689;53.400;12.486;2022-12-05T11:01:38;3.60;99.90
13245;DHT22;6689;53.400;12.486;2022-12-05T11:04:16;3.70;99.90
13245;DHT22;6689;53.400;12.486;2022-12-05T11:06:49;3.70;99.90
13245;DHT22;6689;53.400;12.486;2022-12-05T11:09:17;3.70;99.90
13245;DHT22;6689;53.400;12.486;2022-12-05T11:11:55;3.60;99.90
13245;DHT22;6689;53.400;12.486;2022-12-05T11:14:23;3.70;99.90
13245;DHT22;6689;53.400;12.486;2022-12-05T11:16:55;3.70;99.90
13245;DHT22;6689;53.400;12.486;2022-12-05T11:19:27;3.80;99.90
13245;DHT22;6689;53.400;12.486;2022-12-05T11:21:55;3.90;99.90
13245;DHT22;6689;53.400;12.486;2022-12-05T11:24:25;3.90;99.90
13245;DHT22;6689;53.400;12.486;2022-12-05T11:26:55;3.90;99.90
13245;DHT22;6689;53.400;12.486;2022-12-05T11:29:33;3.90;99.90
13245;DHT22;6689;53.400;12.486;2022-12-05T11:32:01;4.00;99.90
13245;DHT22;6689;53.400;12.486;2022-12-05T11:34:32;4.00;99.90
13245;DHT22;6689;53.400;12.486;2022-12-05T11:37:03;4.00;99.90
13245;DHT22;6689;53.400;12.486;2022-12-05T11:39:30;4.00;99.90
13245;DHT22;6689;53.400;12.486;2022-12-05T11:42:11;4.10;99.90
13245;DHT22;6689;53.400;12.486;2022-12-05T11:47:31;4.00;99.90
13245;DHT22;6689;53.400;12.486;2022-12-05T11:50:11;4.10;99.90
13245;DHT22;6689;53.400;12.486;2022-12-05T11:52:46;4.10;99.90
13245;DHT22;6689;53.400;12.486;2022-12-05T11:55:18;4.00;99.90
13245;DHT22;6689;53.400;12.486;2022-12-05T11:57:55;3.90;99.90
13245;DHT22;6689;53.400;12.486;2022-12-05T12:00:25;4.00;99.90
13245;DHT22;6689;53.400;12.486;2022-12-05T12:03:07;4.10;99.90
13245;DHT22;6689;53.400;12.486;2022-12-05T12:05:57;4.00;99.90
13245;DHT22;6689;53.400;12.486;2022-12-05T12:08:31;4.00;99.90
13245;DHT22;6689;53.400;12.486;2022-12-05T12:11:02;4.00;99.90
13245;DHT22;6689;53.400;12.486;2022-12-05T12:13:44;4.00;99.90
13245;DHT22;6689;53.400;12.486;2022-12-05T12:16:18;3.90;99.90
13245;DHT22;6689;53.400;12.486;2022-12-05T12:19:00;4.00;99.90
13245;DHT22;6689;53.400;12.486;2022-12-05T12:21:32;3.80;99.90
13245;DHT22;6689;53.400;12.486;2022-12-05T12:24:05;3.80;99.90
13245;DHT22;6689;53.400;12.486;2022-12-05T12:26:37;4.00;99.90
13245;DHT22;6689;53.400;12.486;2022-12-05T12:29:08;4.00;99.90
13245;DHT22;6689;53.400;12.486;2022-12-05T12:31:44;4.00;99.90
13245;DHT22;6689;53.400;12.486;2022-12-05T12:34:22;4.00;99.90
13245;DHT22;6689;53.400;12.486;2022-12-05T12:36:52;4.10;99.90
13245;DHT22;6689;53.400;12.486;2022-12-05T12:39:25;4.10;99.90
13245;DHT22;6689;53.400;12.486;2022-12-05T12:42:05;4.00;99.90
13245;DHT22;6689;53.400;12.486;2022-12-05T12:44:46;4.10;99.90
13245;DHT22;6689;53.400;12.486;2022-12-05T12:47:17;4.00;99.90
13245;DHT22;6689;53.400;12.486;2022-12-05T12:49:50;4.00;99.90
13245;DHT22;6689;53.400;12.486;2022-12-05T12:52:21;4.00;99.90
13245;DHT22;6689;53.400;12.486;2022-12-05T12:54:51;4.00;99.90
13245;DHT22;6689;53.400;12.486;2022-12-05T12:57:21;4.10;99.90
13245;DHT22;6689;53.400;12.486;2022-12-05T12:59:56;4.10;99.90
13245;DHT22;6689;53.400;12.486;2022-12-05T13:02:28;4.10;99.90
13245;DHT22;6689;53.400;12.486;2022-12-05T13:04:57;4.10;99.90
13245;DHT22;6689;53.400;12.486;2022-12-05T13:07:29;4.10;99.90
13245;DHT22;6689;53.400;12.486;2022-12-05T13:09:59;4.10;99.90
13245;DHT22;6689;53.400;12.486;2022-12-05T13:12:28;4.10;99.90
13245;DHT22;6689;53.400;12.486;2022-12-05T13:14:58;4.00;99.90
13245;DHT22;6689;53.400;12.486;2022-12-05T13:17:26;4.00;99.90
13245;DHT22;6689;53.400;12.486;2022-12-05T13:19:53;4.00;99.90
13245;DHT22;6689;53.400;12.486;2022-12-05T13:22:22;4.10;99.90
13245;DHT22;6689;53.400;12.486;2022-12-05T13:24:51;4.10;99.90
13245;DHT22;6689;53.400;12.486;2022-12-05T13:27:19;4.10;99.90
13245;DHT22;6689;53.400;12.486;2022-12-05T13:29:48;4.20;99.90
13245;DHT22;6689;53.400;12.486;2022-12-05T13:32:26;4.20;99.90
13245;DHT22;6689;53.400;12.486;2022-12-05T13:34:53;4.20;99.90
13245;DHT22;6689;53.400;12.486;2022-12-05T13:37:22;4.10;99.90
13245;DHT22;6689;53.400;12.486;2022-12-05T13:40:20;4.10;99.90
13245;DHT22;6689;53.400;12.486;2022-12-05T13:43:05;4.20;99.90
13245;DHT22;6689;53.400;12.486;2022-12-05T13:45:31;4.20;99.90
13245;DHT22;6689;53.400;12.486;2022-12-05T13:48:04;4.20;99.90
13245;DHT22;6689;53.400;12.486;2022-12-05T13:50:39;4.20;99.90
13245;DHT22;6689;53.400;12.486;2022-12-05T13:53:17;4.20;99.90
13245;DHT22;6689;53.400;12.486;2022-12-05T13:55:56;4.20;99.90
13245;DHT22;6689;53.400;12.486;2022-12-05T14:04:00;4.30;99.90
13245;DHT22;6689;53.400;12.486;2022-12-05T14:17:21;4.20;99.90
13245;DHT22;6689;53.400;12.486;2022-12-05T14:19:51;4.20;99.90
13245;DHT22;6689;53.400;12.486;2022-12-05T14:22:30;4.20;99.90
13245;DHT22;6689;53.400;12.486;2022-12-05T14:24:59;4.10;99.90
13245;DHT22;6689;53.400;12.486;2022-12-05T14:27:33;4.10;99.90
13245;DHT22;6689;53.400;12.486;2022-12-05T14:30:12;4.20;99.90
13245;DHT22;6689;53.400;12.486;2022-12-05T14:32:44;4.20;99.90
13245;DHT22;6689;53.400;12.486;2022-12-05T14:35:12;4.20;99.90
13245;DHT22;6689;53.400;12.486;2022-12-05T14:37:40;4.20;99.90
13245;DHT22;6689;53.400;12.486;2022-12-05T14:40:16;4.20;99.90
13245;DHT22;6689;53.400;12.486;2022-12-05T14:42:51;4.20;99.90
13245;DHT22;6689;53.400;12.486;2022-12-05T14:48:05;4.20;99.90
13245;DHT22;6689;53.400;12.486;2022-12-05T14:50:34;4.20;99.90
13245;DHT22;6689;53.400;12.486;2022-12-05T14:53:17;4.10;99.90
13245;DHT22;6689;53.400;12.486;2022-12-05T14:55:46;4.10;99.90
13245;DHT22;6689;53.400;12.486;2022-12-05T14:58:15;4.10;99.90
13245;DHT22;6689;53.400;12.486;2022-12-05T15:00:43;4.10;99.90
13245;DHT22;6689;53.400;12.486;2022-12-05T15:03:16;4.10;99.90
13245;DHT22;6689;53.400;12.486;2022-12-05T15:05:47;4.10;99.90
13245;DHT22;6689;53.400;12.486;2022-12-05T15:08:18;4.10;99.90
13245;DHT22;6689;53.400;12.486;2022-12-05T15:10:45;4.20;99.90
13245;DHT22;6689;53.400;12.486;2022-12-05T15:13:14;4.20;99.90
13245;DHT22;6689;53.400;12.486;2022-12-05T15:15:43;4.20;99.90
13245;DHT22;6689;53.400;12.486;2022-12-05T15:18:15;4.10;99.90
13245;DHT22;6689;53.400;12.486;2022-12-05T15:20:47;4.20;99.90
13245;DHT22;6689;53.400;12.486;2022-12-05T15:26:01;4.20;99.90
13245;DHT22;6689;53.400;12.486;2022-12-05T15:28:28;4.20;99.90
13245;DHT22;6689;53.400;12.486;2022-12-05T15:30:55;4.20;99.90
13245;DHT22;6689;53.400;12.486;2022-12-05T15:33:24;4.20;99.90
13245;DHT22;6689;53.400;12.486;2022-12-05T15:35:51;4.20;99.90
13245;DHT22;6689;53.400;12.486;2022-12-05T15:38:21;4.20;99.90
13245;DHT22;6689;53.400;12.486;2022-12-05T15:40:49;4.20;99.90
13245;DHT22;6689;53.400;12.486;2022-12-05T15:43:25;4.10;99.90
13245;DHT22;6689;53.400;12.486;2022-12-05T15:46:05;4.20;99.90
13245;DHT22;6689;53.400;12.486;2022-12-05T15:48:33;4.20;99.90
13245;DHT22;6689;53.400;12.486;2022-12-05T15:51:01;4.20;99.90
13245;DHT22;6689;53.400;12.486;2022-12-05T15:53:30;4.20;99.90
13245;DHT22;6689;53.400;12.486;2022-12-05T15:55:59;4.20;99.90
13245;DHT22;6689;53.400;12.486;2022-12-05T15:58:30;4.20;99.90
13245;DHT22;6689;53.400;12.486;2022-12-05T16:01:01;4.20;99.90
13245;DHT22;6689;53.400;12.486;2022-12-05T16:03:32;4.20;99.90
13245;DHT22;6689;53.400;12.486;2022-12-05T16:06:04;4.20;99.90
13245;DHT22;6689;53.400;12.486;2022-12-05T16:08:38;4.20;99.90
13245;DHT22;6689;53.400;12.486;2022-12-05T16:11:09;4.10;99.90
13245;DHT22;6689;53.400;12.486;2022-12-05T16:13:36;4.10;99.90
13245;DHT22;6689;53.400;12.486;2022-12-05T16:16:08;4.10;99.90
13245;DHT22;6689;53.400;12.486;2022-12-05T16:18:39;4.20;99.90
13245;DHT22;6689;53.400;12.486;2022-12-05T16:21:31;4.20;99.90
13245;DHT22;6689;53.400;12.486;2022-12-05T16:23:59;4.20;99.90
13245;DHT22;6689;53.400;12.486;2022-12-05T16:26:27;4.20;99.90
13245;DHT22;6689;53.400;12.486;2022-12-05T16:28:57;4.10;99.90
13245;DHT22;6689;53.400;12.486;2022-12-05T16:31:25;4.00;99.90
13245;DHT22;6689;53.400;12.486;2022-12-05T16:33:59;4.00;99.90
13245;DHT22;6689;53.400;12.486;2022-12-05T16:36:27;4.00;99.90